Terminal Aerodrome Forecast
Issued by NWS

Home | Current Version | Previous Version | Graphics & Text | Print | Product List | Glossary Off
Versions: 1 2 3 4 5 6 7 8 9 10 11 12 13 14 15 16 17 18 19

292
FTUS43 KICT 261723
TAFSLN
TAF
KSLN 261723Z 2618/2718 35009KT P6SM OVC012
     FM262100 36009KT P6SM OVC020
     FM270100 01008KT P6SM OVC050
     FM270800 36007KT P6SM OVC250=

USA.gov is the U.S. government's official web portal to all federal, state and local government web resources and services.